sensor_id;sensor_type;location;lat;lon;timestamp;temperature;humidity
6672;DHT22;3372;48.690;12.362;2023-05-21T00:02:02;19.10;28.10
6672;DHT22;3372;48.690;12.362;2023-05-21T00:04:29;19.20;28.40
6672;DHT22;3372;48.690;12.362;2023-05-21T00:06:56;19.10;28.20
6672;DHT22;3372;48.690;12.362;2023-05-21T00:09:22;19.10;28.20
6672;DHT22;3372;48.690;12.362;2023-05-21T00:11:48;19.10;28.20
6672;DHT22;3372;48.690;12.362;2023-05-21T00:14:14;19.00;28.20
6672;DHT22;3372;48.690;12.362;2023-05-21T00:16:40;19.10;28.10
6672;DHT22;3372;48.690;12.362;2023-05-21T00:19:05;19.10;28.00
6672;DHT22;3372;48.690;12.362;2023-05-21T00:21:32;19.10;27.90
6672;DHT22;3372;48.690;12.362;2023-05-21T00:23:58;19.00;27.80
6672;DHT22;3372;48.690;12.362;2023-05-21T00:26:24;19.00;27.60
6672;DHT22;3372;48.690;12.362;2023-05-21T00:28:49;19.00;27.50
6672;DHT22;3372;48.690;12.362;2023-05-21T00:31:15;19.00;27.30
6672;DHT22;3372;48.690;12.362;2023-05-21T00:33:41;19.00;27.20
6672;DHT22;3372;48.690;12.362;2023-05-21T00:36:07;18.90;27.20
6672;DHT22;3372;48.690;12.362;2023-05-21T00:38:33;18.90;27.20
6672;DHT22;3372;48.690;12.362;2023-05-21T00:41:02;18.90;27.20
6672;DHT22;3372;48.690;12.362;2023-05-21T00:43:28;18.90;27.00
6672;DHT22;3372;48.690;12.362;2023-05-21T00:45:54;18.90;27.60
6672;DHT22;3372;48.690;12.362;2023-05-21T00:48:20;18.80;27.00
6672;DHT22;3372;48.690;12.362;2023-05-21T00:50:46;18.80;27.00
6672;DHT22;3372;48.690;12.362;2023-05-21T00:53:13;18.80;27.40
6672;DHT22;3372;48.690;12.362;2023-05-21T00:55:42;18.70;26.80
6672;DHT22;3372;48.690;12.362;2023-05-21T00:58:07;18.80;26.70
6672;DHT22;3372;48.690;12.362;2023-05-21T01:00:34;18.70;26.50
6672;DHT22;3372;48.690;12.362;2023-05-21T01:03:00;18.70;26.60
6672;DHT22;3372;48.690;12.362;2023-05-21T01:05:27;18.70;26.70
6672;DHT22;3372;48.690;12.362;2023-05-21T01:07:54;18.70;26.80
6672;DHT22;3372;48.690;12.362;2023-05-21T01:10:21;18.60;27.20
6672;DHT22;3372;48.690;12.362;2023-05-21T01:12:47;18.60;27.40
6672;DHT22;3372;48.690;12.362;2023-05-21T01:15:13;18.60;27.40
6672;DHT22;3372;48.690;12.362;2023-05-21T01:17:39;18.60;27.50
6672;DHT22;3372;48.690;12.362;2023-05-21T01:20:06;18.60;28.10
6672;DHT22;3372;48.690;12.362;2023-05-21T01:22:37;18.60;27.70
6672;DHT22;3372;48.690;12.362;2023-05-21T01:25:06;18.60;27.80
6672;DHT22;3372;48.690;12.362;2023-05-21T01:27:32;18.60;28.20
6672;DHT22;3372;48.690;12.362;2023-05-21T01:29:57;18.60;28.30
6672;DHT22;3372;48.690;12.362;2023-05-21T01:40:01;18.50;29.80
6672;DHT22;3372;48.690;12.362;2023-05-21T01:42:28;18.50;29.40
6672;DHT22;3372;48.690;12.362;2023-05-21T01:44:56;18.40;30.00
6672;DHT22;3372;48.690;12.362;2023-05-21T01:47:23;18.40;30.40
6672;DHT22;3372;48.690;12.362;2023-05-21T01:49:51;18.40;30.30
6672;DHT22;3372;48.690;12.362;2023-05-21T01:52:17;18.50;30.10
6672;DHT22;3372;48.690;12.362;2023-05-21T01:54:43;18.40;30.90
6672;DHT22;3372;48.690;12.362;2023-05-21T01:57:09;18.40;31.90
6672;DHT22;3372;48.690;12.362;2023-05-21T01:59:34;18.40;31.60
6672;DHT22;3372;48.690;12.362;2023-05-21T02:02:00;18.40;31.80
6672;DHT22;3372;48.690;12.362;2023-05-21T02:04:26;18.30;33.10
6672;DHT22;3372;48.690;12.362;2023-05-21T02:06:52;18.40;33.20
6672;DHT22;3372;48.690;12.362;2023-05-21T02:09:19;18.40;32.90
6672;DHT22;3372;48.690;12.362;2023-05-21T02:11:44;18.40;33.90
6672;DHT22;3372;48.690;12.362;2023-05-21T02:14:10;18.40;33.70
6672;DHT22;3372;48.690;12.362;2023-05-21T02:16:38;18.40;34.20
6672;DHT22;3372;48.690;12.362;2023-05-21T02:19:04;18.30;34.20
6672;DHT22;3372;48.690;12.362;2023-05-21T02:21:31;18.40;33.10
6672;DHT22;3372;48.690;12.362;2023-05-21T02:23:56;18.40;34.00
6672;DHT22;3372;48.690;12.362;2023-05-21T02:26:22;18.40;33.60
6672;DHT22;3372;48.690;12.362;2023-05-21T02:28:48;18.50;34.40
6672;DHT22;3372;48.690;12.362;2023-05-21T02:31:13;18.40;34.00
6672;DHT22;3372;48.690;12.362;2023-05-21T02:33:39;18.30;34.70
6672;DHT22;3372;48.690;12.362;2023-05-21T02:36:06;18.30;35.60
6672;DHT22;3372;48.690;12.362;2023-05-21T02:38:37;18.40;34.40
6672;DHT22;3372;48.690;12.362;2023-05-21T02:41:04;18.40;34.30
6672;DHT22;3372;48.690;12.362;2023-05-21T02:43:30;18.40;34.00
6672;DHT22;3372;48.690;12.362;2023-05-21T02:45:55;18.40;34.00
6672;DHT22;3372;48.690;12.362;2023-05-21T02:48:21;18.40;33.30
6672;DHT22;3372;48.690;12.362;2023-05-21T02:50:46;18.40;35.10
6672;DHT22;3372;48.690;12.362;2023-05-21T02:53:12;18.40;35.50
6672;DHT22;3372;48.690;12.362;2023-05-21T02:55:37;18.20;37.20
6672;DHT22;3372;48.690;12.362;2023-05-21T02:58:03;18.30;36.90
6672;DHT22;3372;48.690;12.362;2023-05-21T03:00:29;18.30;37.10
6672;DHT22;3372;48.690;12.362;2023-05-21T03:02:55;18.30;36.70
6672;DHT22;3372;48.690;12.362;2023-05-21T03:05:20;18.30;37.50
6672;DHT22;3372;48.690;12.362;2023-05-21T03:07:46;18.30;37.50
6672;DHT22;3372;48.690;12.362;2023-05-21T03:10:12;18.20;38.80
6672;DHT22;3372;48.690;12.362;2023-05-21T03:12:37;18.20;38.70
6672;DHT22;3372;48.690;12.362;2023-05-21T03:15:03;18.20;38.90
6672;DHT22;3372;48.690;12.362;2023-05-21T03:17:29;18.20;39.80
6672;DHT22;3372;48.690;12.362;2023-05-21T03:19:55;18.20;40.10
6672;DHT22;3372;48.690;12.362;2023-05-21T03:22:21;18.10;40.80
6672;DHT22;3372;48.690;12.362;2023-05-21T03:24:46;18.20;39.40
6672;DHT22;3372;48.690;12.362;2023-05-21T03:27:13;18.20;40.10
6672;DHT22;3372;48.690;12.362;2023-05-21T03:29:38;18.10;40.30
6672;DHT22;3372;48.690;12.362;2023-05-21T03:32:06;18.10;41.10
6672;DHT22;3372;48.690;12.362;2023-05-21T03:34:31;18.10;41.50
6672;DHT22;3372;48.690;12.362;2023-05-21T03:36:59;18.10;42.30
6672;DHT22;3372;48.690;12.362;2023-05-21T03:39:24;18.10;41.80
6672;DHT22;3372;48.690;12.362;2023-05-21T03:41:50;18.10;42.90
6672;DHT22;3372;48.690;12.362;2023-05-21T03:44:15;18.10;41.90
6672;DHT22;3372;48.690;12.362;2023-05-21T03:46:41;18.10;42.00
6672;DHT22;3372;48.690;12.362;2023-05-21T03:49:07;18.10;41.30
6672;DHT22;3372;48.690;12.362;2023-05-21T03:51:32;18.20;41.20
6672;DHT22;3372;48.690;12.362;2023-05-21T03:53:58;18.10;43.10
6672;DHT22;3372;48.690;12.362;2023-05-21T03:56:24;18.20;41.70
6672;DHT22;3372;48.690;12.362;2023-05-21T03:58:50;18.10;42.70
6672;DHT22;3372;48.690;12.362;2023-05-21T04:01:15;18.20;42.10
6672;DHT22;3372;48.690;12.362;2023-05-21T04:03:42;18.20;42.90
6672;DHT22;3372;48.690;12.362;2023-05-21T04:06:08;18.20;41.90
6672;DHT22;3372;48.690;12.362;2023-05-21T04:08:34;18.10;42.90
6672;DHT22;3372;48.690;12.362;2023-05-21T04:11:01;18.20;43.10
6672;DHT22;3372;48.690;12.362;2023-05-21T04:13:27;18.20;41.80
6672;DHT22;3372;48.690;12.362;2023-05-21T04:15:56;18.20;42.60
6672;DHT22;3372;48.690;12.362;2023-05-21T04:18:21;18.20;42.30
6672;DHT22;3372;48.690;12.362;2023-05-21T04:20:50;18.10;43.10
6672;DHT22;3372;48.690;12.362;2023-05-21T04:23:15;18.20;42.50
6672;DHT22;3372;48.690;12.362;2023-05-21T04:25:41;18.20;42.90
6672;DHT22;3372;48.690;12.362;2023-05-21T04:28:08;18.10;42.60
6672;DHT22;3372;48.690;12.362;2023-05-21T04:30:33;18.10;43.20
6672;DHT22;3372;48.690;12.362;2023-05-21T04:33:02;18.20;43.20
6672;DHT22;3372;48.690;12.362;2023-05-21T04:35:28;18.20;41.90
6672;DHT22;3372;48.690;12.362;2023-05-21T04:37:53;18.10;43.60
6672;DHT22;3372;48.690;12.362;2023-05-21T04:40:19;18.20;42.60
6672;DHT22;3372;48.690;12.362;2023-05-21T04:42:49;18.20;43.30
6672;DHT22;3372;48.690;12.362;2023-05-21T04:45:15;18.20;42.20
6672;DHT22;3372;48.690;12.362;2023-05-21T04:47:42;18.20;42.50
6672;DHT22;3372;48.690;12.362;2023-05-21T04:50:08;18.30;42.60
6672;DHT22;3372;48.690;12.362;2023-05-21T04:52:35;18.30;42.50
6672;DHT22;3372;48.690;12.362;2023-05-21T04:55:01;18.30;42.40
6672;DHT22;3372;48.690;12.362;2023-05-21T04:57:27;18.30;41.90
6672;DHT22;3372;48.690;12.362;2023-05-21T04:59:54;18.30;42.20
6672;DHT22;3372;48.690;12.362;2023-05-21T05:02:20;18.30;41.80
6672;DHT22;3372;48.690;12.362;2023-05-21T05:04:46;18.30;43.20
6672;DHT22;3372;48.690;12.362;2023-05-21T05:07:11;18.30;41.90
6672;DHT22;3372;48.690;12.362;2023-05-21T05:09:37;18.20;42.40
6672;DHT22;3372;48.690;12.362;2023-05-21T05:12:03;18.20;43.30
6672;DHT22;3372;48.690;12.362;2023-05-21T05:14:29;18.30;42.40
6672;DHT22;3372;48.690;12.362;2023-05-21T05:16:55;18.30;42.70
6672;DHT22;3372;48.690;12.362;2023-05-21T05:19:25;18.40;42.50
6672;DHT22;3372;48.690;12.362;2023-05-21T05:21:51;18.30;42.40
6672;DHT22;3372;48.690;12.362;2023-05-21T05:24:17;18.40;41.70
6672;DHT22;3372;48.690;12.362;2023-05-21T05:26:43;18.40;41.60
6672;DHT22;3372;48.690;12.362;2023-05-21T05:29:08;18.40;42.40
6672;DHT22;3372;48.690;12.362;2023-05-21T05:31:35;18.40;41.30
6672;DHT22;3372;48.690;12.362;2023-05-21T05:34:01;18.40;41.80
6672;DHT22;3372;48.690;12.362;2023-05-21T05:36:27;18.40;41.80
6672;DHT22;3372;48.690;12.362;2023-05-21T05:38:54;18.50;41.40
6672;DHT22;3372;48.690;12.362;2023-05-21T05:41:20;18.50;41.20
6672;DHT22;3372;48.690;12.362;2023-05-21T05:43:45;18.50;41.30
6672;DHT22;3372;48.690;12.362;2023-05-21T05:46:12;18.60;41.10
6672;DHT22;3372;48.690;12.362;2023-05-21T05:48:38;18.50;40.70
6672;DHT22;3372;48.690;12.362;2023-05-21T05:51:04;18.60;41.20
6672;DHT22;3372;48.690;12.362;2023-05-21T05:53:30;18.60;41.00
6672;DHT22;3372;48.690;12.362;2023-05-21T05:55:56;18.70;40.50
6672;DHT22;3372;48.690;12.362;2023-05-21T05:58:22;18.70;40.70
6672;DHT22;3372;48.690;12.362;2023-05-21T06:00:48;18.70;40.50
6672;DHT22;3372;48.690;12.362;2023-05-21T06:03:13;18.80;40.60
6672;DHT22;3372;48.690;12.362;2023-05-21T06:05:39;18.90;40.00
6672;DHT22;3372;48.690;12.362;2023-05-21T06:08:05;18.90;40.00
6672;DHT22;3372;48.690;12.362;2023-05-21T06:10:30;19.00;39.40
6672;DHT22;3372;48.690;12.362;2023-05-21T06:12:56;19.10;39.30
6672;DHT22;3372;48.690;12.362;2023-05-21T06:15:22;19.10;39.50
6672;DHT22;3372;48.690;12.362;2023-05-21T06:17:47;19.30;38.70
6672;DHT22;3372;48.690;12.362;2023-05-21T06:20:13;19.40;38.30
6672;DHT22;3372;48.690;12.362;2023-05-21T06:22:39;19.40;38.30
6672;DHT22;3372;48.690;12.362;2023-05-21T06:25:06;19.50;37.60
6672;DHT22;3372;48.690;12.362;2023-05-21T06:27:32;19.60;37.50
6672;DHT22;3372;48.690;12.362;2023-05-21T06:29:58;19.60;36.80
6672;DHT22;3372;48.690;12.362;2023-05-21T06:32:24;19.70;36.20
6672;DHT22;3372;48.690;12.362;2023-05-21T06:34:50;19.90;35.70
6672;DHT22;3372;48.690;12.362;2023-05-21T06:37:18;20.00;35.80
6672;DHT22;3372;48.690;12.362;2023-05-21T06:39:45;19.90;35.70
6672;DHT22;3372;48.690;12.362;2023-05-21T06:42:11;20.10;35.00
6672;DHT22;3372;48.690;12.362;2023-05-21T06:44:36;20.10;34.40
6672;DHT22;3372;48.690;12.362;2023-05-21T06:47:02;20.20;34.50
6672;DHT22;3372;48.690;12.362;2023-05-21T06:49:27;20.30;34.50
6672;DHT22;3372;48.690;12.362;2023-05-21T06:51:53;20.30;34.00
6672;DHT22;3372;48.690;12.362;2023-05-21T06:54:19;20.50;34.50
6672;DHT22;3372;48.690;12.362;2023-05-21T06:56:44;20.60;31.80
6672;DHT22;3372;48.690;12.362;2023-05-21T06:59:10;20.80;30.70
6672;DHT22;3372;48.690;12.362;2023-05-21T07:01:35;20.90;30.00
6672;DHT22;3372;48.690;12.362;2023-05-21T07:04:01;21.20;29.90
6672;DHT22;3372;48.690;12.362;2023-05-21T07:06:27;21.60;29.20
6672;DHT22;3372;48.690;12.362;2023-05-21T07:08:52;21.80;28.70
6672;DHT22;3372;48.690;12.362;2023-05-21T07:11:18;22.20;26.90
6672;DHT22;3372;48.690;12.362;2023-05-21T07:13:43;22.20;26.70
6672;DHT22;3372;48.690;12.362;2023-05-21T07:16:09;22.30;24.00
6672;DHT22;3372;48.690;12.362;2023-05-21T07:18:35;22.30;24.80
6672;DHT22;3372;48.690;12.362;2023-05-21T07:21:00;22.40;25.30
6672;DHT22;3372;48.690;12.362;2023-05-21T07:23:26;22.60;26.10
6672;DHT22;3372;48.690;12.362;2023-05-21T07:25:52;22.80;25.90
6672;DHT22;3372;48.690;12.362;2023-05-21T07:28:18;22.90;24.60
6672;DHT22;3372;48.690;12.362;2023-05-21T07:30:44;22.80;24.20
6672;DHT22;3372;48.690;12.362;2023-05-21T07:33:10;22.80;23.80
6672;DHT22;3372;48.690;12.362;2023-05-21T07:35:36;22.90;23.50
6672;DHT22;3372;48.690;12.362;2023-05-21T07:38:02;22.70;23.70
6672;DHT22;3372;48.690;12.362;2023-05-21T07:40:28;22.70;23.40
6672;DHT22;3372;48.690;12.362;2023-05-21T07:42:53;22.70;23.70
6672;DHT22;3372;48.690;12.362;2023-05-21T07:45:19;22.70;23.00
6672;DHT22;3372;48.690;12.362;2023-05-21T07:47:44;22.60;22.50
6672;DHT22;3372;48.690;12.362;2023-05-21T07:50:11;22.60;23.90
6672;DHT22;3372;48.690;12.362;2023-05-21T07:52:37;22.70;22.40
6672;DHT22;3372;48.690;12.362;2023-05-21T07:55:02;22.90;22.70
6672;DHT22;3372;48.690;12.362;2023-05-21T07:57:28;23.00;21.80
6672;DHT22;3372;48.690;12.362;2023-05-21T07:59:54;23.10;21.80
6672;DHT22;3372;48.690;12.362;2023-05-21T08:02:20;23.30;21.10
6672;DHT22;3372;48.690;12.362;2023-05-21T08:04:46;23.40;21.50
6672;DHT22;3372;48.690;12.362;2023-05-21T08:07:12;23.70;20.30
6672;DHT22;3372;48.690;12.362;2023-05-21T08:09:38;23.80;19.00
6672;DHT22;3372;48.690;12.362;2023-05-21T08:12:03;24.20;19.50
6672;DHT22;3372;48.690;12.362;2023-05-21T08:14:29;24.50;18.00
6672;DHT22;3372;48.690;12.362;2023-05-21T08:16:55;24.50;17.70
6672;DHT22;3372;48.690;12.362;2023-05-21T08:19:20;24.80;17.50
6672;DHT22;3372;48.690;12.362;2023-05-21T08:21:46;24.70;16.80
6672;DHT22;3372;48.690;12.362;2023-05-21T08:24:12;24.60;17.20
6672;DHT22;3372;48.690;12.362;2023-05-21T08:26:37;24.50;16.00
6672;DHT22;3372;48.690;12.362;2023-05-21T08:29:03;24.70;16.20
6672;DHT22;3372;48.690;12.362;2023-05-21T08:31:28;24.80;15.20
6672;DHT22;3372;48.690;12.362;2023-05-21T08:33:54;25.00;16.00
6672;DHT22;3372;48.690;12.362;2023-05-21T08:36:21;25.40;16.10
6672;DHT22;3372;48.690;12.362;2023-05-21T08:38:47;25.10;14.10
6672;DHT22;3372;48.690;12.362;2023-05-21T08:41:13;25.20;15.30
6672;DHT22;3372;48.690;12.362;2023-05-21T08:43:39;25.20;14.40
6672;DHT22;3372;48.690;12.362;2023-05-21T08:46:05;24.90;14.50
6672;DHT22;3372;48.690;12.362;2023-05-21T08:48:33;25.10;15.30
6672;DHT22;3372;48.690;12.362;2023-05-21T08:51:00;25.10;15.30
6672;DHT22;3372;48.690;12.362;2023-05-21T08:53:26;25.40;14.60
6672;DHT22;3372;48.690;12.362;2023-05-21T08:55:53;25.00;13.10
6672;DHT22;3372;48.690;12.362;2023-05-21T08:58:20;25.00;14.70
6672;DHT22;3372;48.690;12.362;2023-05-21T09:00:46;25.10;13.70
6672;DHT22;3372;48.690;12.362;2023-05-21T09:03:13;25.30;14.10
6672;DHT22;3372;48.690;12.362;2023-05-21T09:05:40;25.30;12.90
6672;DHT22;3372;48.690;12.362;2023-05-21T09:10:50;25.90;13.10
6672;DHT22;3372;48.690;12.362;2023-05-21T09:13:16;26.00;12.10
6672;DHT22;3372;48.690;12.362;2023-05-21T09:15:46;26.30;13.10
6672;DHT22;3372;48.690;12.362;2023-05-21T09:18:13;26.00;11.40
6672;DHT22;3372;48.690;12.362;2023-05-21T09:20:39;26.10;10.40
6672;DHT22;3372;48.690;12.362;2023-05-21T09:23:06;26.00;11.50
6672;DHT22;3372;48.690;12.362;2023-05-21T09:25:37;26.30;11.70
6672;DHT22;3372;48.690;12.362;2023-05-21T09:28:09;26.10;11.50
6672;DHT22;3372;48.690;12.362;2023-05-21T09:30:36;26.00;10.40
6672;DHT22;3372;48.690;12.362;2023-05-21T09:33:02;26.00;12.20
6672;DHT22;3372;48.690;12.362;2023-05-21T09:35:28;26.00;12.50
6672;DHT22;3372;48.690;12.362;2023-05-21T09:37:54;26.20;11.90
6672;DHT22;3372;48.690;12.362;2023-05-21T09:40:22;26.10;12.30
6672;DHT22;3372;48.690;12.362;2023-05-21T09:42:50;26.10;11.50
6672;DHT22;3372;48.690;12.362;2023-05-21T09:45:20;26.00;12.90
6672;DHT22;3372;48.690;12.362;2023-05-21T09:47:47;25.80;12.30
6672;DHT22;3372;48.690;12.362;2023-05-21T09:52:42;25.80;11.50
6672;DHT22;3372;48.690;12.362;2023-05-21T09:55:12;25.80;12.00
6672;DHT22;3372;48.690;12.362;2023-05-21T09:57:48;25.60;12.50
6672;DHT22;3372;48.690;12.362;2023-05-21T10:00:22;25.50;12.60
6672;DHT22;3372;48.690;12.362;2023-05-21T10:02:52;25.80;13.40
6672;DHT22;3372;48.690;12.362;2023-05-21T10:05:19;25.70;11.20
6672;DHT22;3372;48.690;12.362;2023-05-21T10:07:51;25.90;10.60
6672;DHT22;3372;48.690;12.362;2023-05-21T10:10:19;26.20;10.60
6672;DHT22;3372;48.690;12.362;2023-05-21T10:12:46;26.40;9.50
6672;DHT22;3372;48.690;12.362;2023-05-21T10:15:14;26.50;9.20
6672;DHT22;3372;48.690;12.362;2023-05-21T10:17:46;26.20;10.20
6672;DHT22;3372;48.690;12.362;2023-05-21T10:20:13;26.00;9.60
6672;DHT22;3372;48.690;12.362;2023-05-21T10:22:39;26.00;10.50
6672;DHT22;3372;48.690;12.362;2023-05-21T10:25:08;26.20;11.00
6672;DHT22;3372;48.690;12.362;2023-05-21T10:27:35;26.10;9.90
6672;DHT22;3372;48.690;12.362;2023-05-21T10:30:03;26.40;10.40
6672;DHT22;3372;48.690;12.362;2023-05-21T10:32:29;26.60;10.70
6672;DHT22;3372;48.690;12.362;2023-05-21T10:34:56;26.30;9.00
6672;DHT22;3372;48.690;12.362;2023-05-21T10:37:25;26.40;9.10
6672;DHT22;3372;48.690;12.362;2023-05-21T10:39:52;26.40;9.30
6672;DHT22;3372;48.690;12.362;2023-05-21T10:42:45;26.50;10.60
6672;DHT22;3372;48.690;12.362;2023-05-21T10:45:23;26.30;10.00
6672;DHT22;3372;48.690;12.362;2023-05-21T10:48:13;26.10;9.10
6672;DHT22;3372;48.690;12.362;2023-05-21T10:51:37;26.30;9.90
6672;DHT22;3372;48.690;12.362;2023-05-21T10:56:35;26.30;10.40
6672;DHT22;3372;48.690;12.362;2023-05-21T11:01:53;26.00;9.10
6672;DHT22;3372;48.690;12.362;2023-05-21T11:04:26;26.00;9.50
6672;DHT22;3372;48.690;12.362;2023-05-21T11:06:51;26.00;8.60
6672;DHT22;3372;48.690;12.362;2023-05-21T11:09:17;26.00;9.70
6672;DHT22;3372;48.690;12.362;2023-05-21T11:11:50;26.20;9.90
6672;DHT22;3372;48.690;12.362;2023-05-21T11:16:51;26.10;9.00
6672;DHT22;3372;48.690;12.362;2023-05-21T11:19:17;26.30;9.50
6672;DHT22;3372;48.690;12.362;2023-05-21T11:21:49;26.40;9.10
6672;DHT22;3372;48.690;12.362;2023-05-21T11:24:18;26.30;8.50
6672;DHT22;3372;48.690;12.362;2023-05-21T11:29:13;26.40;9.30
6672;DHT22;3372;48.690;12.362;2023-05-21T11:31:45;26.30;8.80
6672;DHT22;3372;48.690;12.362;2023-05-21T11:34:11;26.20;7.80
6672;DHT22;3372;48.690;12.362;2023-05-21T11:36:44;26.30;8.40
6672;DHT22;3372;48.690;12.362;2023-05-21T11:39:25;26.30;9.90
6672;DHT22;3372;48.690;12.362;2023-05-21T11:44:43;26.40;7.70
6672;DHT22;3372;48.690;12.362;2023-05-21T11:47:13;26.40;7.70
6672;DHT22;3372;48.690;12.362;2023-05-21T11:49:39;26.40;7.00
6672;DHT22;3372;48.690;12.362;2023-05-21T11:52:06;26.30;8.20
6672;DHT22;3372;48.690;12.362;2023-05-21T11:54:36;26.30;8.90
6672;DHT22;3372;48.690;12.362;2023-05-21T11:57:06;26.30;8.20
6672;DHT22;3372;48.690;12.362;2023-05-21T11:59:32;26.40;8.80
6672;DHT22;3372;48.690;12.362;2023-05-21T12:01:59;26.50;9.00
6672;DHT22;3372;48.690;12.362;2023-05-21T12:04:35;26.40;9.60
6672;DHT22;3372;48.690;12.362;2023-05-21T12:07:04;26.30;8.40
6672;DHT22;3372;48.690;12.362;2023-05-21T12:12:11;26.20;9.30
6672;DHT22;3372;48.690;12.362;2023-05-21T12:14:38;26.30;9.20
6672;DHT22;3372;48.690;12.362;2023-05-21T12:17:04;26.30;9.20
6672;DHT22;3372;48.690;12.362;2023-05-21T12:19:35;26.30;9.00
6672;DHT22;3372;48.690;12.362;2023-05-21T12:22:02;26.20;8.80
6672;DHT22;3372;48.690;12.362;2023-05-21T12:24:31;26.20;8.10
6672;DHT22;3372;48.690;12.362;2023-05-21T12:26:58;26.30;9.30
6672;DHT22;3372;48.690;12.362;2023-05-21T12:29:28;26.20;9.60
6672;DHT22;3372;48.690;12.362;2023-05-21T12:31:58;26.30;9.30
6672;DHT22;3372;48.690;12.362;2023-05-21T12:34:47;26.30;8.40
6672;DHT22;3372;48.690;12.362;2023-05-21T12:37:28;26.40;9.00
6672;DHT22;3372;48.690;12.362;2023-05-21T12:40:01;26.30;8.40
6672;DHT22;3372;48.690;12.362;2023-05-21T12:42:31;26.50;9.50
6672;DHT22;3372;48.690;12.362;2023-05-21T12:44:59;26.50;7.70
6672;DHT22;3372;48.690;12.362;2023-05-21T12:47:26;26.40;8.60
6672;DHT22;3372;48.690;12.362;2023-05-21T12:50:02;26.50;7.50
6672;DHT22;3372;48.690;12.362;2023-05-21T12:52:29;26.50;8.30
6672;DHT22;3372;48.690;12.362;2023-05-21T12:54:58;26.50;8.70
6672;DHT22;3372;48.690;12.362;2023-05-21T12:57:34;26.40;8.90
6672;DHT22;3372;48.690;12.362;2023-05-21T13:00:02;26.50;8.90
6672;DHT22;3372;48.690;12.362;2023-05-21T13:02:32;26.60;7.70
6672;DHT22;3372;48.690;12.362;2023-05-21T13:05:05;26.70;8.40
6672;DHT22;3372;48.690;12.362;2023-05-21T13:07:34;26.70;8.00
6672;DHT22;3372;48.690;12.362;2023-05-21T13:10:01;26.70;7.80
6672;DHT22;3372;48.690;12.362;2023-05-21T13:12:29;26.70;8.40
6672;DHT22;3372;48.690;12.362;2023-05-21T13:15:00;26.80;9.70
6672;DHT22;3372;48.690;12.362;2023-05-21T13:17:27;26.70;10.10
6672;DHT22;3372;48.690;12.362;2023-05-21T13:20:15;26.70;9.20
6672;DHT22;3372;48.690;12.362;2023-05-21T13:22:49;26.70;7.70
6672;DHT22;3372;48.690;12.362;2023-05-21T13:25:19;26.70;8.10
6672;DHT22;3372;48.690;12.362;2023-05-21T13:27:50;26.70;6.80
6672;DHT22;3372;48.690;12.362;2023-05-21T13:30:16;26.50;6.10
6672;DHT22;3372;48.690;12.362;2023-05-21T13:32:42;26.50;7.60
6672;DHT22;3372;48.690;12.362;2023-05-21T13:35:08;26.50;7.90
6672;DHT22;3372;48.690;12.362;2023-05-21T13:37:34;26.50;7.90
6672;DHT22;3372;48.690;12.362;2023-05-21T13:40:04;26.60;6.70
6672;DHT22;3372;48.690;12.362;2023-05-21T13:42:30;26.50;7.20
6672;DHT22;3372;48.690;12.362;2023-05-21T13:44:56;26.50;6.80
6672;DHT22;3372;48.690;12.362;2023-05-21T13:47:22;26.50;6.30
6672;DHT22;3372;48.690;12.362;2023-05-21T13:49:47;26.50;7.10
6672;DHT22;3372;48.690;12.362;2023-05-21T13:52:13;26.60;7.50
6672;DHT22;3372;48.690;12.362;2023-05-21T13:54:39;26.60;6.90
6672;DHT22;3372;48.690;12.362;2023-05-21T13:57:05;26.60;7.30
6672;DHT22;3372;48.690;12.362;2023-05-21T13:59:30;26.60;6.90
6672;DHT22;3372;48.690;12.362;2023-05-21T14:01:56;26.50;6.80
6672;DHT22;3372;48.690;12.362;2023-05-21T14:04:22;26.50;6.90
6672;DHT22;3372;48.690;12.362;2023-05-21T14:06:48;26.50;6.50
6672;DHT22;3372;48.690;12.362;2023-05-21T14:09:14;26.60;6.90
6672;DHT22;3372;48.690;12.362;2023-05-21T14:11:40;26.50;6.30
6672;DHT22;3372;48.690;12.362;2023-05-21T14:14:05;26.70;6.60
6672;DHT22;3372;48.690;12.362;2023-05-21T14:16:32;26.80;7.60
6672;DHT22;3372;48.690;12.362;2023-05-21T14:18:58;26.80;6.90
6672;DHT22;3372;48.690;12.362;2023-05-21T14:21:24;26.80;7.00
6672;DHT22;3372;48.690;12.362;2023-05-21T14:23:50;26.90;7.20
6672;DHT22;3372;48.690;12.362;2023-05-21T14:26:16;27.10;7.60
6672;DHT22;3372;48.690;12.362;2023-05-21T14:28:42;27.20;7.10
6672;DHT22;3372;48.690;12.362;2023-05-21T14:31:08;27.00;5.00
6672;DHT22;3372;48.690;12.362;2023-05-21T14:33:35;27.00;6.30
6672;DHT22;3372;48.690;12.362;2023-05-21T14:36:01;26.80;6.80
6672;DHT22;3372;48.690;12.362;2023-05-21T14:38:27;26.70;7.10
6672;DHT22;3372;48.690;12.362;2023-05-21T14:40:53;26.70;6.60
6672;DHT22;3372;48.690;12.362;2023-05-21T14:43:19;26.70;7.60
6672;DHT22;3372;48.690;12.362;2023-05-21T14:45:44;26.60;7.10
6672;DHT22;3372;48.690;12.362;2023-05-21T14:48:10;26.60;7.80
6672;DHT22;3372;48.690;12.362;2023-05-21T14:50:37;26.80;6.90
6672;DHT22;3372;48.690;12.362;2023-05-21T14:53:07;26.80;6.30
6672;DHT22;3372;48.690;12.362;2023-05-21T14:55:33;26.70;5.50
6672;DHT22;3372;48.690;12.362;2023-05-21T14:58:00;26.60;5.70
6672;DHT22;3372;48.690;12.362;2023-05-21T15:00:27;26.70;6.10
6672;DHT22;3372;48.690;12.362;2023-05-21T15:02:53;26.70;6.10
6672;DHT22;3372;48.690;12.362;2023-05-21T15:05:19;26.70;5.40
6672;DHT22;3372;48.690;12.362;2023-05-21T15:07:44;26.80;6.30
6672;DHT22;3372;48.690;12.362;2023-05-21T15:10:11;26.80;5.90
6672;DHT22;3372;48.690;12.362;2023-05-21T15:12:37;26.80;5.50
6672;DHT22;3372;48.690;12.362;2023-05-21T15:15:03;26.80;5.10
6672;DHT22;3372;48.690;12.362;2023-05-21T15:17:29;27.00;5.80
6672;DHT22;3372;48.690;12.362;2023-05-21T15:19:55;26.90;4.40
6672;DHT22;3372;48.690;12.362;2023-05-21T15:22:20;27.00;5.20
6672;DHT22;3372;48.690;12.362;2023-05-21T15:24:46;27.00;4.40
6672;DHT22;3372;48.690;12.362;2023-05-21T15:27:11;26.90;4.40
6672;DHT22;3372;48.690;12.362;2023-05-21T15:29:37;27.00;5.20
6672;DHT22;3372;48.690;12.362;2023-05-21T15:32:04;26.80;4.60
6672;DHT22;3372;48.690;12.362;2023-05-21T15:34:31;26.60;4.70
6672;DHT22;3372;48.690;12.362;2023-05-21T15:36:56;26.50;4.70
6672;DHT22;3372;48.690;12.362;2023-05-21T15:39:22;26.50;6.20
6672;DHT22;3372;48.690;12.362;2023-05-21T15:41:48;26.50;5.00
6672;DHT22;3372;48.690;12.362;2023-05-21T15:44:13;26.30;5.90
6672;DHT22;3372;48.690;12.362;2023-05-21T15:46:39;26.30;4.90
6672;DHT22;3372;48.690;12.362;2023-05-21T15:49:05;26.30;6.10
6672;DHT22;3372;48.690;12.362;2023-05-21T15:51:31;26.30;6.60
6672;DHT22;3372;48.690;12.362;2023-05-21T15:53:56;26.30;5.90
6672;DHT22;3372;48.690;12.362;2023-05-21T15:56:22;26.30;6.50
6672;DHT22;3372;48.690;12.362;2023-05-21T15:58:47;26.40;6.90
6672;DHT22;3372;48.690;12.362;2023-05-21T16:01:13;26.50;5.90
6672;DHT22;3372;48.690;12.362;2023-05-21T16:03:39;26.50;5.60
6672;DHT22;3372;48.690;12.362;2023-05-21T16:06:04;26.50;6.20
6672;DHT22;3372;48.690;12.362;2023-05-21T16:08:32;26.60;6.10
6672;DHT22;3372;48.690;12.362;2023-05-21T16:10:58;26.60;5.90
6672;DHT22;3372;48.690;12.362;2023-05-21T16:13:23;26.60;5.20
6672;DHT22;3372;48.690;12.362;2023-05-21T16:15:49;26.60;5.50
6672;DHT22;3372;48.690;12.362;2023-05-21T16:18:15;26.60;5.80
6672;DHT22;3372;48.690;12.362;2023-05-21T16:20:40;26.70;6.90